Time;durP1;ratioP1;P1;durP2;ratioP2;P2;SDS_P1;SDS_P2;PMS_P1;PMS_P2;Temp;Humidity;BMP_temperature;BMP_pressure;BME280_temperature;BME280_humidity;BME280_pressure;Samples;Min_cycle;Max_cycle;Signal;HPM_P1;HPM_P2
2022/11/03 00:01:45;;;;;;;21.13;6.57;;;;;;;8.24;100.00;100821.69;5037428;28;20060;-74
2022/11/03 00:04:17;;;;;;;10.57;6.05;;;;;;;8.27;100.00;100826.00;5055137;28;20445;-74
2022/11/03 00:06:46;;;;;;;16.92;6.28;;;;;;;8.29;100.00;100813.63;5047219;28;20045;-74
2022/11/03 00:09:14;;;;;;;14.57;6.45;;;;;;;8.37;100.00;100801.94;5049245;28;20497;-74
2022/11/03 00:11:42;;;;;;;13.80;6.65;;;;;;;8.23;100.00;100776.88;5031440;28;20459;-74
2022/11/03 00:14:10;;;;;;;19.52;6.88;;;;;;;8.16;100.00;100807.88;5036396;28;20045;-73
2022/11/03 00:16:38;;;;;;;11.25;6.05;;;;;;;7.96;100.00;100797.06;5045130;28;20079;-73
2022/11/03 00:19:06;;;;;;;16.73;6.43;;;;;;;7.92;100.00;100808.59;5043700;28;20115;-72
2022/11/03 00:21:32;;;;;;;16.42;6.80;;;;;;;7.86;100.00;100803.53;5034547;28;20037;-73
2022/11/03 00:24:01;;;;;;;15.90;5.85;;;;;;;7.80;100.00;100796.66;5046759;28;20158;-74
2022/11/03 00:26:30;;;;;;;16.45;6.18;;;;;;;7.77;100.00;100786.19;5049045;28;20446;-71
2022/11/03 00:29:04;;;;;;;17.23;6.70;;;;;;;7.82;100.00;100791.31;5042159;28;20150;-75
2022/11/03 00:31:33;;;;;;;16.70;6.40;;;;;;;7.85;100.00;100783.34;5033504;28;20060;-74
2022/11/03 00:34:01;;;;;;;10.38;6.43;;;;;;;7.86;100.00;100788.56;5048883;28;20065;-75
2022/11/03 00:36:33;;;;;;;16.55;7.07;;;;;;;7.65;100.00;100749.66;5054066;28;20063;-74
2022/11/03 00:39:00;;;;;;;13.68;6.30;;;;;;;7.84;100.00;100785.09;5039143;28;20382;-72
2022/11/03 00:41:27;;;;;;;14.20;6.18;;;;;;;7.86;100.00;100770.09;5036696;28;20053;-73
2022/11/03 00:43:54;;;;;;;11.55;5.60;;;;;;;7.73;100.00;100737.94;5055411;28;20060;-74
2022/11/03 00:46:21;;;;;;;13.85;5.88;;;;;;;7.73;100.00;100734.44;5050179;28;20436;-72
2022/11/03 00:48:49;;;;;;;14.50;6.03;;;;;;;7.63;100.00;100731.22;5054535;28;20136;-75
2022/11/03 00:51:20;;;;;;;19.27;6.15;;;;;;;7.70;100.00;100751.25;5042607;28;20822;-72
2022/11/03 00:53:47;;;;;;;11.57;5.97;;;;;;;7.64;100.00;100758.47;5051329;28;20372;-76
2022/11/03 00:56:21;;;;;;;11.35;6.22;;;;;;;7.59;100.00;100755.06;5050659;28;20224;-76
2022/11/03 00:58:49;;;;;;;14.70;6.25;;;;;;;7.59;100.00;100753.31;5052339;28;20040;-73
2022/11/03 01:01:18;;;;;;;12.45;5.97;;;;;;;7.52;100.00;100751.78;5037860;28;20048;-71
2022/11/03 01:06:49;;;;;;;13.45;6.15;;;;;;;7.54;100.00;100754.38;5054908;28;20051;-76
2022/11/03 01:09:38;;;;;;;16.15;6.35;;;;;;;7.46;100.00;100748.44;5055052;28;20044;-72
2022/11/03 01:12:11;;;;;;;13.45;6.20;;;;;;;7.41;100.00;100743.28;5037007;28;20051;-74
2022/11/03 01:14:43;;;;;;;13.52;6.13;;;;;;;7.23;100.00;100712.22;5049432;28;20091;-72
2022/11/03 01:17:15;;;;;;;13.70;6.47;;;;;;;7.34;100.00;100728.59;5056125;28;20048;-74
2022/11/03 01:19:42;;;;;;;15.10;7.03;;;;;;;7.40;100.00;100731.03;5049638;28;20498;-75
2022/11/03 01:22:09;;;;;;;22.85;6.68;;;;;;;7.47;100.00;100729.94;5033048;28;20051;-73
2022/11/03 01:24:39;;;;;;;15.88;6.68;;;;;;;7.35;100.00;100722.41;5049056;28;20106;-72
2022/11/03 01:27:12;;;;;;;14.18;6.30;;;;;;;7.25;100.00;100727.06;5049543;28;20042;-75
2022/11/03 01:29:39;;;;;;;11.18;6.68;;;;;;;7.18;100.00;100724.66;5051160;28;20091;-72
2022/11/03 01:32:07;;;;;;;16.77;7.22;;;;;;;6.93;100.00;100698.97;5039520;28;20057;-74
2022/11/03 01:34:34;;;;;;;13.05;7.00;;;;;;;6.93;100.00;100706.88;5048007;28;20053;-74
2022/11/03 01:37:01;;;;;;;15.65;6.70;;;;;;;7.02;100.00;100721.56;5041825;28;20507;-75
2022/11/03 01:39:28;;;;;;;15.23;6.40;;;;;;;7.08;100.00;100729.31;5047580;28;20063;-74
2022/11/03 01:41:55;;;;;;;14.82;6.68;;;;;;;7.02;100.00;100709.28;5036168;28;20512;-73
2022/11/03 01:44:21;;;;;;;18.20;6.78;;;;;;;7.17;100.00;100718.53;5048020;28;20049;-74
2022/11/03 01:46:58;;;;;;;15.65;6.60;;;;;;;7.12;100.00;100717.78;5052919;28;20525;-73
2022/11/03 01:49:31;;;;;;;17.38;6.18;;;;;;;7.10;100.00;100713.44;5049954;28;20424;-75
2022/11/03 01:52:08;;;;;;;13.93;5.82;;;;;;;7.06;100.00;100710.06;5032829;28;20133;-75
2022/11/03 01:54:36;;;;;;;14.93;6.30;;;;;;;7.01;100.00;100704.03;5053066;28;20554;-74
2022/11/03 01:57:10;;;;;;;15.80;6.00;;;;;;;6.98;100.00;100710.25;5048179;28;20127;-74
2022/11/03 01:59:38;;;;;;;12.93;6.20;;;;;;;6.90;100.00;100696.44;5051046;28;20480;-74
2022/11/03 02:02:05;;;;;;;13.65;6.63;;;;;;;6.88;100.00;100700.03;5038239;28;20136;-72
2022/11/03 02:04:33;;;;;;;15.13;6.38;;;;;;;6.86;100.00;100696.56;5042996;28;20072;-74
2022/11/03 02:07:09;;;;;;;12.88;6.13;;;;;;;6.86;100.00;100691.31;5046695;28;20044;-75
2022/11/03 02:09:35;;;;;;;15.40;6.13;;;;;;;6.86;100.00;100692.16;5049188;28;20140;-73
2022/11/03 02:12:05;;;;;;;17.67;6.13;;;;;;;6.83;100.00;100675.59;5039367;28;20047;-74
2022/11/03 02:14:32;;;;;;;13.98;6.47;;;;;;;6.82;100.00;100673.84;5047291;28;20056;-72
2022/11/03 02:17:05;;;;;;;13.60;6.20;;;;;;;6.80;100.00;100683.56;5046818;28;20037;-74
2022/11/03 02:19:46;;;;;;;17.45;6.30;;;;;;;6.81;100.00;100672.13;5047333;28;20049;-75
2022/11/03 02:22:37;;;;;;;11.07;5.93;;;;;;;6.81;100.00;100667.72;5032154;28;20401;-75
2022/11/03 02:25:31;;;;;;;13.23;6.47;;;;;;;6.69;100.00;100650.50;5044598;28;20049;-71
2022/11/03 02:27:59;;;;;;;14.18;5.95;;;;;;;6.76;100.00;100658.25;5043098;28;20187;-74
2022/11/03 02:30:37;;;;;;;17.02;6.55;;;;;;;6.79;100.00;100656.38;5052793;28;20068;-74
2022/11/03 02:33:58;;;;;;;15.57;6.07;;;;;;;6.88;100.00;100650.00;5041516;28;20552;-73
2022/11/03 02:36:30;;;;;;;17.65;6.35;;;;;;;6.82;100.00;100648.41;4990190;28;20054;-74
2022/11/03 02:39:04;;;;;;;13.77;5.97;;;;;;;6.87;100.00;100646.50;5045771;28;20094;-75
2022/11/03 02:41:34;;;;;;;15.02;5.65;;;;;;;6.92;100.00;100649.03;5041575;28;20450;-71
2022/11/03 02:44:03;;;;;;;17.00;8.50;;;;;;;6.88;100.00;100639.47;5039632;28;20061;-71
2022/11/03 02:46:31;;;;;;;11.77;5.63;;;;;;;6.87;100.00;100648.28;5043354;28;20079;-74
2022/11/03 02:48:58;;;;;;;9.88;5.55;;;;;;;6.81;100.00;100644.03;5039576;28;20080;-74
2022/11/03 02:51:24;;;;;;;12.82;5.43;;;;;;;6.85;100.00;100640.41;5042865;28;20048;-73
2022/11/03 02:54:24;;;;;;;15.02;5.80;;;;;;;6.80;100.00;100620.38;5040459;28;20051;-74
2022/11/03 02:56:58;;;;;;;14.18;5.95;;;;;;;6.81;100.00;100633.50;5046609;28;20099;-72
2022/11/03 02:59:49;;;;;;;14.07;5.72;;;;;;;6.73;100.00;100629.38;5050027;28;20049;-73
2022/11/03 03:02:22;;;;;;;13.88;5.20;;;;;;;6.53;100.00;100608.84;5044264;28;20495;-73
2022/11/03 03:04:54;;;;;;;14.50;5.50;;;;;;;6.61;100.00;100623.53;5046254;28;20084;-72
2022/11/03 03:07:29;;;;;;;12.63;5.72;;;;;;;6.60;100.00;100620.97;5046715;28;20760;-74
2022/11/03 03:10:02;;;;;;;13.40;5.53;;;;;;;6.44;100.00;100596.84;5045110;28;20072;-74
2022/11/03 03:12:31;;;;;;;16.70;5.68;;;;;;;6.61;100.00;100615.63;5035977;28;20048;-75
2022/11/03 03:15:00;;;;;;;12.27;5.20;;;;;;;6.62;100.00;100604.19;5045389;28;20426;-73
2022/11/03 03:17:33;;;;;;;13.77;5.70;;;;;;;6.69;100.00;100604.91;5045879;28;20072;-73
2022/11/03 03:20:02;;;;;;;9.43;5.15;;;;;;;6.66;100.00;100592.69;5046335;28;20057;-71
2022/11/03 03:22:37;;;;;;;12.85;4.93;;;;;;;6.63;100.00;100563.81;5034276;28;20140;-73
2022/11/03 03:25:28;;;;;;;14.20;5.43;;;;;;;6.78;100.00;100586.22;5044902;28;20595;-74
2022/11/03 03:28:04;;;;;;;11.88;5.30;;;;;;;6.68;100.00;100561.94;5041418;28;20045;-73
2022/11/03 03:30:32;;;;;;;13.25;5.25;;;;;;;6.69;100.00;100555.78;5044911;28;20056;-75
2022/11/03 03:33:03;;;;;;;16.67;5.22;;;;;;;6.78;100.00;100582.72;5034875;28;20041;-73
2022/11/03 03:35:32;;;;;;;14.10;5.70;;;;;;;6.76;100.00;100577.53;5052107;28;20049;-76
2022/11/03 03:38:04;;;;;;;14.48;6.03;;;;;;;6.78;100.00;100570.41;5049654;28;20139;-73
2022/11/03 03:40:35;;;;;;;13.95;5.65;;;;;;;6.78;100.00;100582.72;5045182;28;20470;-75
2022/11/03 03:43:05;;;;;;;15.05;6.00;;;;;;;6.75;100.00;100570.53;5031265;28;20054;-73
2022/11/03 03:45:35;;;;;;;14.18;5.55;;;;;;;6.65;100.00;100569.91;5045966;28;20055;-75
2022/11/03 03:48:03;;;;;;;15.65;5.78;;;;;;;6.66;100.00;100573.41;5046530;28;20048;-75
2022/11/03 03:50:34;;;;;;;15.65;5.68;;;;;;;6.65;100.00;100575.19;5049354;28;20076;-74
2022/11/03 03:53:04;;;;;;;11.82;5.50;;;;;;;6.62;100.00;100572.63;5033217;28;20048;-78
2022/11/03 03:55:38;;;;;;;14.65;5.10;;;;;;;6.60;100.00;100577.09;5041409;28;20047;-72
2022/11/03 03:58:05;;;;;;;13.95;5.63;;;;;;;6.54;100.00;100574.63;5050940;28;20048;-74
2022/11/03 04:00:32;;;;;;;13.13;5.72;;;;;;;6.50;100.00;100572.97;5047718;28;20041;-72
2022/11/03 04:02:59;;;;;;;12.57;5.25;;;;;;;6.35;100.00;100549.72;5037097;28;20061;-72
2022/11/03 04:05:26;;;;;;;14.75;5.72;;;;;;;6.50;100.00;100567.72;5043886;28;20040;-72
2022/11/03 04:07:53;;;;;;;16.27;5.97;;;;;;;6.43;100.00;100545.13;5045866;28;20748;-72
2022/11/03 04:10:21;;;;;;;15.73;6.00;;;;;;;6.47;100.00;100551.13;5045477;28;20083;-73
2022/11/03 04:22:15;;;;;;;14.52;5.60;;;;;;;6.32;100.00;100527.00;5035666;28;20405;-73
2022/11/03 04:24:01;;;;;;;11.15;5.47;;;;;;;6.32;100.00;100548.03;5036641;28;20144;-74
2022/11/03 04:26:28;;;;;;;10.50;5.85;;;;;;;6.32;100.00;100552.41;5048248;28;20152;-71
2022/11/03 04:28:56;;;;;;;15.20;6.03;;;;;;;6.22;100.00;100530.78;5049335;28;20051;-73
2022/11/03 04:31:23;;;;;;;13.32;6.20;;;;;;;6.24;100.00;100541.25;5059046;28;20040;-73
2022/11/03 04:33:49;;;;;;;13.85;5.72;;;;;;;6.24;100.00;100536.00;5041937;28;20089;-70
2022/11/03 04:36:21;;;;;;;14.50;5.88;;;;;;;6.21;100.00;100530.81;5051453;28;20128;-75
2022/11/03 04:38:50;;;;;;;16.05;5.75;;;;;;;6.10;100.00;100517.09;5052420;28;20056;-74
2022/11/03 04:41:23;;;;;;;13.82;5.97;;;;;;;6.24;100.00;100533.38;5053008;28;20041;-72
2022/11/03 04:43:51;;;;;;;15.73;5.88;;;;;;;6.18;100.00;100534.38;5046981;28;20048;-72
2022/11/03 04:46:27;;;;;;;13.90;6.03;;;;;;;6.18;100.00;100536.16;5052860;28;20449;-72
2022/11/03 04:48:58;;;;;;;13.95;5.75;;;;;;;6.17;100.00;100526.53;5045657;28;20071;-73
2022/11/03 04:51:29;;;;;;;16.77;5.82;;;;;;;6.14;100.00;100534.53;5043619;28;20128;-74
2022/11/03 04:54:12;;;;;;;11.23;5.90;;;;;;;6.08;100.00;100526.78;5037578;28;20132;-74
2022/11/03 04:56:39;;;;;;;13.52;6.00;;;;;;;6.05;100.00;100516.34;5054900;28;20121;-71
2022/11/03 04:59:12;;;;;;;14.02;5.95;;;;;;;6.07;100.00;100511.94;5051333;28;20041;-74
2022/11/03 05:01:39;;;;;;;14.48;6.07;;;;;;;6.03;100.00;100511.13;5051790;28;20583;-74
2022/11/03 05:04:15;;;;;;;14.77;6.93;;;;;;;5.97;100.00;100500.81;5040082;28;20090;-75
2022/11/03 05:06:52;;;;;;;14.20;6.40;;;;;;;5.78;100.00;100482.00;5055125;28;20052;-73
2022/11/03 05:09:25;;;;;;;14.63;6.43;;;;;;;5.75;100.00;100476.81;5048901;28;20041;-74
2022/11/03 05:11:53;;;;;;;14.88;6.07;;;;;;;5.72;100.00;100487.38;5046397;28;20076;-74
2022/11/03 05:14:23;;;;;;;15.32;5.60;;;;;;;5.81;100.00;100502.94;5041417;28;20060;-75
2022/11/03 05:16:52;;;;;;;14.30;6.20;;;;;;;5.84;100.00;100497.56;5052944;28;20468;-72
2022/11/03 05:19:23;;;;;;;15.48;6.47;;;;;;;5.87;100.00;100487.00;5055120;28;20121;-75
2022/11/03 05:21:51;;;;;;;12.07;5.90;;;;;;;5.83;100.00;100487.97;5052703;28;20132;-72
2022/11/03 05:24:20;;;;;;;14.65;6.75;;;;;;;5.63;100.00;100459.59;5039430;28;20055;-73
2022/11/03 05:26:48;;;;;;;11.73;5.80;;;;;;;5.75;100.00;100482.06;5057385;28;20148;-72
2022/11/03 05:29:19;;;;;;;16.58;6.75;;;;;;;5.72;100.00;100482.13;5048275;28;20486;-73
2022/11/03 05:31:47;;;;;;;12.63;6.15;;;;;;;5.67;100.00;100473.50;5055621;28;20057;-73
2022/11/03 05:34:25;;;;;;;16.35;6.32;;;;;;;5.71;100.00;100480.41;5049537;28;20044;-72
2022/11/03 05:36:52;;;;;;;15.82;7.05;;;;;;;5.71;100.00;100474.28;5049408;28;20064;-72
2022/11/03 05:39:27;;;;;;;12.90;6.22;;;;;;;5.62;100.00;100443.88;5053783;28;20401;-73
2022/11/03 05:41:56;;;;;;;15.55;6.45;;;;;;;5.60;100.00;100441.28;5046874;28;20046;-73
2022/11/03 05:44:36;;;;;;;18.55;6.90;;;;;;;5.64;100.00;100452.59;5042180;28;20071;-73
2022/11/03 05:47:13;;;;;;;11.68;5.90;;;;;;;5.58;100.00;100455.34;5056453;28;20041;-73
2022/11/03 05:49:39;;;;;;;16.08;6.75;;;;;;;5.54;100.00;100446.69;5053064;28;20051;-72
2022/11/03 05:52:16;;;;;;;18.08;6.75;;;;;;;5.55;100.00;100450.19;5049054;28;20072;-71
2022/11/03 05:54:43;;;;;;;14.32;6.57;;;;;;;5.57;100.00;100451.00;5043608;28;20496;-73
2022/11/03 05:57:13;;;;;;;15.95;6.10;;;;;;;5.59;100.00;100441.31;5051481;28;20116;-72
2022/11/03 05:59:43;;;;;;;16.95;7.03;;;;;;;5.48;100.00;100422.34;5051796;28;20468;-73
2022/11/03 06:02:26;;;;;;;17.63;7.00;;;;;;;5.58;100.00;100436.97;5047206;28;20136;-73
2022/11/03 06:04:52;;;;;;;14.57;9.48;;;;;;;5.56;100.00;100434.38;5046305;28;20040;-72
2022/11/03 06:07:23;;;;;;;18.10;6.90;;;;;;;5.61;100.00;100440.38;5049638;28;20060;-73
2022/11/03 06:09:51;;;;;;;;;;;;;;;5.64;100.00;100432.44;5054610;28;20135;-71
2022/11/03 06:12:21;;;;;;;18.40;7.22;;;;;;;5.68;100.00;100432.31;5054865;28;19929;-76
2022/11/03 06:14:48;;;;;;;16.73;6.85;;;;;;;5.67;100.00;100415.69;5039523;28;20175;-72
2022/11/03 06:17:24;;;;;;;19.65;7.32;;;;;;;5.74;100.00;100416.41;5049505;28;20072;-74
2022/11/03 06:19:59;;;;;;;13.52;6.65;;;;;;;5.74;100.00;100411.16;5059304;28;20488;-70
2022/11/03 06:22:34;;;;;;;12.57;6.82;;;;;;;5.78;100.00;100410.19;5045651;28;20076;-69
2022/11/03 06:25:22;;;;;;;12.80;6.50;;;;;;;5.79;100.00;100406.66;5041536;28;20079;-73
2022/11/03 06:27:50;;;;;;;18.23;7.30;;;;;;;5.67;100.00;100384.16;5043044;28;20495;-73
2022/11/03 06:30:19;;;;;;;17.05;7.18;;;;;;;5.55;100.00;100369.63;5055509;28;20404;-74
2022/11/03 06:32:46;;;;;;;19.35;7.53;;;;;;;5.73;100.00;100404.19;5049560;28;20457;-70
2022/11/03 06:35:13;;;;;;;18.17;7.20;;;;;;;5.79;100.00;100412.78;5043857;28;20071;-73
2022/11/03 06:37:40;;;;;;;18.50;6.85;;;;;;;5.86;100.00;100414.31;5047164;28;20075;-74
2022/11/03 06:40:10;;;;;;;13.15;6.82;;;;;;;5.86;100.00;100411.69;5051351;28;20128;-73
2022/11/03 06:42:40;;;;;;;18.92;6.80;;;;;;;5.84;100.00;100408.22;5039881;28;20418;-71
2022/11/03 06:45:18;;;;;;;23.05;7.78;;;;;;;5.86;100.00;100409.06;5038585;28;20049;-74
2022/11/03 06:47:45;;;;;;;14.13;7.32;;;;;;;5.88;100.00;100404.66;5058631;28;20404;-75
2022/11/03 06:50:38;;;;;;;17.52;7.55;;;;;;;5.89;100.00;100406.38;5054785;28;20540;-73
2022/11/03 06:53:10;;;;;;;13.50;6.85;;;;;;;5.91;100.00;100412.47;5040600;28;20072;-70
2022/11/03 06:55:39;;;;;;;16.27;7.10;;;;;;;5.91;100.00;100393.19;5043633;28;20051;-72
2022/11/03 06:58:27;;;;;;;20.20;7.18;;;;;;;6.03;100.00;100405.13;5051701;28;20081;-71
2022/11/03 07:00:57;;;;;;;13.45;6.45;;;;;;;6.07;100.00;100401.50;5049464;28;20136;-69
2022/11/03 07:03:34;;;;;;;23.92;10.20;;;;;;;6.05;100.00;100400.69;5035715;28;20045;-74
2022/11/03 07:06:09;;;;;;;17.42;8.20;;;;;;;6.14;100.00;100397.81;5045661;28;20132;-71
2022/11/03 07:08:46;;;;;;;18.50;8.10;;;;;;;6.17;100.00;100390.69;5042925;28;20037;-72
2022/11/03 07:11:13;;;;;;;16.05;7.80;;;;;;;6.24;100.00;100396.63;5041367;28;20045;-74
2022/11/03 07:13:40;;;;;;;17.20;7.63;;;;;;;6.21;100.00;100386.19;5039722;28;20069;-70
2022/11/03 07:16:44;;;;;;;16.48;7.32;;;;;;;6.31;100.00;100390.28;5040677;28;20043;-72
2022/11/03 07:19:23;;;;;;;17.25;7.00;;;;;;;6.45;100.00;100385.50;5048772;28;20942;-74
2022/11/03 07:21:53;;;;;;;15.75;7.80;;;;;;;6.53;100.00;100372.94;5055589;28;20047;-71
2022/11/03 07:24:22;;;;;;;19.25;8.65;;;;;;;6.67;100.00;100373.38;5036627;28;20623;-73
2022/11/03 07:27:01;;;;;;;17.15;7.93;;;;;;;6.57;100.00;100352.69;5049642;28;20132;-70
2022/11/03 07:29:29;;;;;;;14.93;7.65;;;;;;;6.81;100.00;100367.66;5043595;28;20072;-73
2022/11/03 07:31:58;;;;;;;17.35;7.32;;;;;;;6.95;100.00;100365.44;5049746;28;20036;-74
2022/11/03 07:34:32;;;;;;;16.50;7.40;;;;;;;7.12;100.00;100351.72;5032254;28;20144;-72
2022/11/03 07:36:59;;;;;;;13.80;6.55;;;;;;;7.28;100.00;100346.81;5041643;28;20681;-72
2022/11/03 07:39:33;;;;;;;15.95;6.97;;;;;;;7.36;100.00;100324.56;5041736;28;20080;-74
2022/11/03 07:42:08;;;;;;;16.90;6.43;;;;;;;7.52;100.00;100330.16;5038574;28;20114;-73
2022/11/03 07:44:35;;;;;;;16.52;6.32;;;;;;;7.62;100.00;100328.06;5031441;28;20084;-72
2022/11/03 07:47:02;;;;;;;16.50;6.60;;;;;;;7.60;100.00;100292.97;5041199;28;20152;-76
2022/11/03 07:49:29;;;;;;;13.57;6.57;;;;;;;7.85;100.00;100317.53;5036977;28;20503;-74
2022/11/03 07:51:57;;;;;;;40.08;8.95;;;;;;;7.94;100.00;100308.41;5036498;28;20053;-73
2022/11/03 07:54:31;;;;;;;20.65;7.53;;;;;;;8.06;100.00;100311.44;5038036;28;20513;-75
2022/11/03 07:57:13;;;;;;;14.55;6.90;;;;;;;8.21;100.00;100306.50;5041994;28;20131;-73
2022/11/03 07:59:43;;;;;;;14.40;6.57;;;;;;;8.40;100.00;100304.91;5042567;28;20072;-74
2022/11/03 08:02:25;;;;;;;12.85;6.25;;;;;;;8.53;100.00;100305.28;5037848;28;20091;-75
2022/11/03 08:04:51;;;;;;;17.90;6.35;;;;;;;8.61;100.00;100298.78;5033570;28;20045;-70
2022/11/03 08:07:18;;;;;;;15.65;6.30;;;;;;;8.70;100.00;100297.53;5039129;28;20052;-69
2022/11/03 08:09:44;;;;;;;13.55;6.18;;;;;;;8.75;100.00;100291.16;5040333;28;20056;-72
2022/11/03 08:12:11;;;;;;;15.88;5.80;;;;;;;8.83;100.00;100280.25;5036429;28;20671;-72
2022/11/03 08:14:37;;;;;;;11.32;5.63;;;;;;;8.93;100.00;100272.84;5031289;28;20057;-72
2022/11/03 08:17:04;;;;;;;14.00;6.07;;;;;;;9.05;100.00;100273.16;5040734;28;20048;-71
2022/11/03 08:19:31;;;;;;;16.42;5.50;;;;;;;9.17;100.00;100261.19;5038906;28;20469;-70
2022/11/03 08:21:57;;;;;;;16.42;6.05;;;;;;;9.31;100.00;100264.09;5043012;28;20497;-73
2022/11/03 08:24:24;;;;;;;13.68;5.68;;;;;;;9.42;100.00;100256.56;5034207;28;20128;-72
2022/11/03 08:26:50;;;;;;;15.43;5.15;;;;;;;9.41;100.00;100235.50;5039310;28;20140;-69
2022/11/03 08:29:17;;;;;;;14.00;5.63;;;;;;;9.59;100.00;100247.03;5040327;28;20057;-73
2022/11/03 08:31:44;;;;;;;12.02;5.20;;;;;;;9.63;100.00;100249.44;5038910;28;20054;-73
2022/11/03 08:34:10;;;;;;;10.32;5.47;;;;;;;9.68;100.00;100246.59;5030474;28;20076;-72
2022/11/03 08:36:37;;;;;;;12.70;5.80;;;;;;;9.76;100.00;100244.44;5035744;28;20049;-72
2022/11/03 08:39:04;;;;;;;12.93;5.68;;;;;;;9.80;100.00;100257.47;5034740;28;20056;-70
2022/11/03 08:41:30;;;;;;;17.60;7.35;;;;;;;9.69;100.00;100229.81;5042198;28;20058;-72
2022/11/03 08:43:57;;;;;;;14.80;5.60;;;;;;;9.83;100.00;100245.91;5036349;28;20049;-72
2022/11/03 08:46:23;;;;;;;10.50;6.00;;;;;;;9.87;100.00;100239.56;5035719;28;20137;-72
2022/11/03 08:48:50;;;;;;;14.75;6.00;;;;;;;9.89;100.00;100229.75;5044354;28;20053;-71
2022/11/03 08:51:17;;;;;;;11.63;6.65;;;;;;;9.85;100.00;100222.88;5039853;28;20152;-72
2022/11/03 08:53:45;;;;;;;13.23;5.95;;;;;;;9.90;100.00;100226.19;5035020;28;20175;-72
2022/11/03 08:56:11;;;;;;;16.70;6.40;;;;;;;10.02;100.00;100224.75;5033304;28;20124;-72
2022/11/03 08:58:42;;;;;;;16.98;6.53;;;;;;;10.08;100.00;100216.50;5041232;28;20176;-73
2022/11/03 09:01:09;;;;;;;12.40;5.47;;;;;;;10.19;100.00;100220.41;5039610;28;20053;-73
2022/11/03 09:03:36;;;;;;;15.10;6.05;;;;;;;10.27;100.00;100214.72;5034619;28;20519;-72
2022/11/03 09:06:03;;;;;;;13.73;5.95;;;;;;;10.38;100.00;100219.50;5028223;28;20450;-72
2022/11/03 09:08:30;;;;;;;11.15;5.07;;;;;;;10.52;100.00;100219.69;5045556;28;20216;-74
2022/11/03 09:11:17;;;;;;;16.02;6.13;;;;;;;10.59;100.00;100214.94;5038796;28;20053;-73
2022/11/03 09:13:43;;;;;;;27.90;7.68;;;;;;;10.61;100.00;100224.50;5041979;28;20360;-71
2022/11/03 09:16:10;;;;;;;14.82;7.20;;;;;;;10.45;100.00;100224.41;5037021;28;20409;-74
2022/11/03 09:18:36;;;;;;;22.83;7.35;;;;;;;10.15;100.00;100196.75;5044516;28;20493;-75
2022/11/03 09:21:03;;;;;;;15.30;7.25;;;;;;;10.03;100.00;100207.94;5039371;28;20044;-75
2022/11/03 09:23:29;;;;;;;20.75;7.03;;;;;;;10.10;100.00;100238.44;5044322;28;20172;-72
2022/11/03 09:25:56;;;;;;;16.27;6.28;;;;;;;9.96;100.00;100207.38;5038564;28;20040;-70
2022/11/03 09:28:22;;;;;;;13.27;6.97;;;;;;;10.06;100.00;100218.38;5038969;28;20048;-72
2022/11/03 09:30:49;;;;;;;13.75;6.93;;;;;;;10.11;100.00;100217.22;5041050;28;20128;-73
2022/11/03 09:33:16;;;;;;;13.23;6.85;;;;;;;10.22;100.00;100205.31;5042661;28;20060;-73
2022/11/03 09:35:42;;;;;;;18.42;6.78;;;;;;;10.30;100.00;100193.41;5035778;28;20040;-73
2022/11/03 09:38:09;;;;;;;17.45;6.75;;;;;;;10.44;100.00;100184.78;5043454;28;20478;-73
2022/11/03 09:40:35;;;;;;;14.38;6.15;;;;;;;10.61;100.00;100182.16;5043746;28;20072;-75
2022/11/03 09:43:02;;;;;;;16.45;6.35;;;;;;;10.76;100.00;100164.63;5041490;28;20048;-74
2022/11/03 09:45:29;;;;;;;12.43;6.13;;;;;;;10.97;100.00;100176.78;5039132;28;20278;-73
2022/11/03 09:47:56;;;;;;;11.35;6.30;;;;;;;11.05;100.00;100163.09;5042768;28;20174;-76
2022/11/03 09:50:23;;;;;;;12.85;7.00;;;;;;;11.17;100.00;100173.94;5047084;28;20060;-72
2022/11/03 09:52:54;;;;;;;19.40;7.07;;;;;;;11.21;100.00;100166.66;5047265;28;20116;-70
2022/11/03 09:55:24;;;;;;;17.02;6.40;;;;;;;11.15;100.00;100146.66;5035631;28;20148;-73
2022/11/03 09:57:57;;;;;;;12.25;6.75;;;;;;;11.26;100.00;100159.34;5014423;28;20887;-72
2022/11/03 10:00:25;;;;;;;12.20;6.13;;;;;;;11.22;100.00;100148.03;5032272;28;20416;-74
2022/11/03 10:02:53;;;;;;;17.15;6.45;;;;;;;11.22;100.00;100144.53;5040906;28;20741;-73
2022/11/03 10:05:26;;;;;;;12.00;6.53;;;;;;;11.15;100.00;100138.72;5031682;28;20060;-71
2022/11/03 10:07:57;;;;;;;13.95;6.90;;;;;;;11.14;100.00;100130.84;5034725;28;20094;-72
2022/11/03 10:10:25;;;;;;;14.40;6.80;;;;;;;11.06;100.00;100106.53;5037672;28;20132;-73
2022/11/03 10:12:52;;;;;;;11.48;6.25;;;;;;;11.25;100.00;100121.38;5043200;28;20044;-73
2022/11/03 10:15:21;;;;;;;9.85;6.05;;;;;;;11.38;100.00;100107.44;5035669;28;20504;-77
2022/11/03 10:17:49;;;;;;;12.57;5.70;;;;;;;11.52;100.00;100104.88;5045486;28;20069;-75
2022/11/03 10:20:20;;;;;;;12.25;5.95;;;;;;;11.80;100.00;100099.78;5044572;28;20057;-76
2022/11/03 10:22:51;;;;;;;14.05;6.32;;;;;;;12.02;97.75;100093.25;5040658;28;20317;-77
2022/11/03 10:25:36;;;;;;;14.45;5.47;;;;;;;12.30;96.79;100088.88;5035277;28;20411;-77
2022/11/03 10:28:14;;;;;;;10.77;5.28;;;;;;;12.57;94.53;100088.22;5037176;28;20459;-78
2022/11/03 10:30:50;;;;;;;10.15;5.07;;;;;;;12.87;92.25;100080.19;5042160;28;20052;-77
2022/11/03 10:33:39;;;;;;;12.90;5.45;;;;;;;13.02;89.45;100057.97;5037645;28;20148;-74
2022/11/03 10:36:22;;;;;;;12.45;5.10;;;;;;;13.08;88.34;100036.31;5032997;28;20065;-74
2022/11/03 10:38:49;;;;;;;11.13;5.32;;;;;;;12.88;87.07;100003.03;5049857;28;20044;-75
2022/11/03 10:41:23;;;;;;;12.02;5.15;;;;;;;12.93;88.06;100011.53;5037132;28;20045;-75
2022/11/03 10:44:05;;;;;;;12.57;4.80;;;;;;;12.98;87.80;100006.81;5042916;28;20075;-71
2022/11/03 10:46:32;;;;;;;10.48;4.75;;;;;;;13.18;87.85;100026.00;5036609;28;20420;-73
2022/11/03 10:49:18;;;;;;;12.98;5.22;;;;;;;13.26;87.39;100007.72;5044274;28;20052;-71
2022/11/03 10:51:49;;;;;;;12.93;4.88;;;;;;;13.53;84.97;100021.94;5046676;28;20072;-76
2022/11/03 10:54:17;;;;;;;10.30;4.57;;;;;;;13.52;84.41;100025.53;5043115;28;20497;-70
2022/11/03 10:56:45;;;;;;;11.98;5.13;;;;;;;13.47;84.74;100032.09;5042148;28;20105;-76
2022/11/03 10:59:16;;;;;;;13.68;4.75;;;;;;;13.36;85.13;100030.16;5049955;28;20072;-76
2022/11/03 11:01:43;;;;;;;12.32;5.13;;;;;;;13.33;85.11;100017.88;5042368;28;20061;-74
2022/11/03 11:04:19;;;;;;;11.73;4.60;;;;;;;13.17;86.41;100018.97;5040499;28;20063;-73
2022/11/03 11:06:46;;;;;;;10.05;4.60;;;;;;;12.94;87.71;99997.31;5033848;28;20060;-76
2022/11/03 11:09:26;;;;;;;12.90;4.85;;;;;;;12.90;89.21;100001.13;5038877;28;20663;-74
2022/11/03 11:12:15;;;;;;;9.37;4.33;;;;;;;12.96;89.48;99987.44;5039852;28;20044;-77
2022/11/03 11:14:55;;;;;;;9.10;4.30;;;;;;;13.04;89.15;99967.50;5027870;28;20048;-76
2022/11/03 11:17:45;;;;;;;10.48;3.67;;;;;;;13.11;89.33;99982.09;5033371;28;20140;-71
2022/11/03 11:20:21;;;;;;;11.18;4.03;;;;;;;13.17;89.89;99973.78;5048094;28;20047;-73
2022/11/03 11:22:49;;;;;;;11.30;3.95;;;;;;;13.21;89.75;99951.34;5036639;28;20127;-72
2022/11/03 11:25:19;;;;;;;13.70;5.13;;;;;;;13.05;89.98;99929.34;5028813;28;20045;-75
2022/11/03 11:27:45;;;;;;;13.20;5.07;;;;;;;13.03;90.39;99949.84;5038921;28;20502;-77
2022/11/03 11:30:18;;;;;;;9.35;4.40;;;;;;;13.02;91.46;99941.03;5030301;28;20618;-76
2022/11/03 11:32:44;;;;;;;9.25;4.82;;;;;;;13.05;92.15;99918.72;5020317;28;20682;-69
2022/11/03 11:35:21;;;;;;;10.30;4.18;;;;;;;13.38;90.49;99936.97;5016267;28;20072;-72
2022/11/03 11:37:48;;;;;;;7.38;4.20;;;;;;;13.51;89.19;99933.38;5018310;28;21247;-75
2022/11/03 11:40:23;;;;;;;9.38;4.22;;;;;;;13.62;87.43;99920.22;5043019;28;20045;-75
2022/11/03 11:43:19;;;;;;;6.18;3.63;;;;;;;13.66;86.56;99911.09;5044152;28;20044;-72
2022/11/03 11:46:19;;;;;;;8.60;4.03;;;;;;;13.69;85.93;99899.38;5005634;28;20060;-74
2022/11/03 11:49:00;;;;;;;;;;;;;;;13.64;85.50;99893.50;5061758;28;20049;-76